createdAt,value
2018-03-01T00:07:19.296Z,1017.55
2018-03-01T00:17:16.870Z,1016.50
2018-03-01T00:27:13.813Z,1017.55
2018-03-01T00:37:10.267Z,1017.55
2018-03-01T00:47:09.377Z,1016.50
2018-03-01T00:57:02.305Z,1016.50
2018-03-01T01:06:59.859Z,1016.50
2018-03-01T01:16:57.288Z,1016.50
2018-03-01T01:26:55.552Z,1016.50
2018-03-01T01:36:54.532Z,1016.50
2018-03-01T01:46:51.666Z,1016.50
2018-03-01T01:56:50.981Z,1016.50
2018-03-01T02:06:47.661Z,1015.45
2018-03-01T02:16:44.847Z,1015.45
2018-03-01T02:26:42.580Z,1015.45
2018-03-01T02:36:40.720Z,1015.45
2018-03-01T02:46:39.855Z,1015.45
2018-03-01T02:56:37.386Z,1015.45
2018-03-01T03:06:36.681Z,1015.45
2018-03-01T03:16:34.618Z,1014.41
2018-03-01T03:26:32.828Z,1014.41
2018-03-01T03:36:31.321Z,1014.41
2018-03-01T03:46:30.121Z,1014.41
2018-03-01T03:56:28.083Z,1014.41
2018-03-01T04:06:25.804Z,1014.41
2018-03-01T04:16:24.277Z,1014.41
2018-03-01T04:26:21.074Z,1014.41
2018-03-01T04:36:20.388Z,1014.41
2018-03-01T04:46:08.063Z,1014.41
2018-03-01T04:56:05.720Z,1014.41
2018-03-01T05:06:03.925Z,1014.41
2018-03-01T05:16:02.773Z,1013.36
2018-03-01T05:25:58.899Z,1013.36
2018-03-01T05:35:55.647Z,1013.36
2018-03-01T05:45:52.837Z,1013.36
2018-03-01T05:55:48.297Z,1013.36
2018-03-01T06:05:46.356Z,1013.36
2018-03-01T06:15:44.733Z,1013.36
2018-03-01T06:25:43.354Z,1012.32
2018-03-01T06:35:40.894Z,1013.36
2018-03-01T06:45:37.690Z,1013.36
2018-03-01T06:55:34.250Z,1012.32
2018-03-01T07:05:29.862Z,1012.32
2018-03-01T07:15:27.037Z,1011.27
2018-03-01T07:25:27.635Z,1011.27
2018-03-01T07:35:14.349Z,1011.27
2018-03-01T07:45:11.897Z,1011.27
2018-03-01T07:55:08.892Z,1011.27
2018-03-01T08:05:07.828Z,1010.23
2018-03-01T08:15:05.141Z,1010.23
2018-03-01T08:25:02.474Z,1010.23
2018-03-01T08:34:42.949Z,1010.23
2018-03-01T08:44:24.682Z,1009.18
2018-03-01T08:53:54.016Z,1009.18
2018-03-01T09:03:36.706Z,1009.18
2018-03-01T09:13:04.637Z,1009.18
2018-03-01T09:22:41.592Z,1009.18
2018-03-01T09:32:18.519Z,1009.18
2018-03-01T09:41:56.104Z,1009.18
2018-03-01T09:51:35.591Z,1009.18
2018-03-01T10:01:08.522Z,1009.18
2018-03-01T10:10:38.112Z,1009.18
2018-03-01T10:20:18.838Z,1009.18
2018-03-01T10:29:45.976Z,1009.18
2018-03-01T10:39:22.565Z,1009.18
2018-03-01T10:48:57.251Z,1008.13
2018-03-01T10:58:31.430Z,1008.13
2018-03-01T11:08:09.932Z,1008.13
2018-03-01T11:17:44.813Z,1008.13
2018-03-01T11:27:19.487Z,1007.09
2018-03-01T11:36:46.917Z,1007.09
2018-03-01T11:46:22.728Z,1007.09
2018-03-01T11:56:03.307Z,1007.09
2018-03-01T12:05:32.787Z,1007.09
2018-03-01T12:14:59.351Z,1007.09
2018-03-01T12:24:36.622Z,1007.09
2018-03-01T12:34:12.948Z,1006.04
2018-03-01T12:43:48.540Z,1006.04
2018-03-01T12:53:24.257Z,1006.04
2018-03-01T13:03:04.639Z,1006.04
2018-03-01T13:12:35.924Z,1006.04
2018-03-01T13:22:03.902Z,1006.04
2018-03-01T13:31:41.275Z,1006.04
2018-03-01T13:41:17.206Z,1006.04
2018-03-01T13:50:55.148Z,1006.04
2018-03-01T14:00:29.137Z,1006.04
2018-03-01T14:10:05.106Z,1006.04
2018-03-01T14:19:39.835Z,1005.00
2018-03-01T14:29:16.807Z,1005.00
2018-03-01T14:38:53.243Z,1005.00
2018-03-01T14:48:29.639Z,1005.00
2018-03-01T14:58:04.792Z,1005.00
2018-03-01T15:07:40.156Z,1005.00
2018-03-01T15:17:16.117Z,1005.00
2018-03-01T15:26:53.097Z,1005.00
2018-03-01T15:36:26.667Z,1005.00
2018-03-01T15:46:06.641Z,1005.00
2018-03-01T15:55:33.871Z,1005.00
2018-03-01T16:05:09.098Z,1005.00
2018-03-01T16:14:44.872Z,1005.00
2018-03-01T16:24:24.649Z,1005.00
2018-03-01T16:33:52.033Z,1005.00
2018-03-01T16:43:32.003Z,1005.00
2018-03-01T16:53:04.392Z,1005.00
2018-03-01T17:02:51.396Z,1005.00
2018-03-01T17:12:47.153Z,1005.00
2018-03-01T17:22:40.811Z,1005.00
2018-03-01T17:32:36.212Z,1005.00
2018-03-01T17:42:34.587Z,1005.00
2018-03-01T17:52:27.454Z,1005.00
2018-03-01T18:02:24.258Z,1005.00
2018-03-01T18:12:17.161Z,1005.00
2018-03-01T18:22:06.417Z,1005.00
2018-03-01T18:32:01.326Z,1005.00
2018-03-01T18:41:56.312Z,1005.00
2018-03-01T18:51:52.551Z,1005.00
2018-03-01T19:01:47.791Z,1005.00
2018-03-01T19:11:44.624Z,1005.00
2018-03-01T19:21:41.549Z,1005.00
2018-03-01T19:31:32.477Z,1005.00
2018-03-01T19:41:26.158Z,1005.00
2018-03-01T19:51:21.114Z,1003.95
2018-03-01T20:01:16.961Z,1005.00
2018-03-01T20:11:11.991Z,1005.00
2018-03-01T20:21:05.084Z,1005.00
2018-03-01T20:31:01.035Z,1005.00
2018-03-01T20:40:53.750Z,1005.00
2018-03-01T20:50:48.884Z,1005.00
2018-03-01T21:00:41.325Z,1005.00
2018-03-01T21:10:33.839Z,1003.95
2018-03-01T21:20:29.503Z,1003.95
2018-03-01T21:30:25.394Z,1005.00
2018-03-01T21:40:20.357Z,1003.95
2018-03-01T21:50:17.846Z,1003.95
2018-03-01T22:00:10.607Z,1003.95
2018-03-01T22:10:08.238Z,1003.95
2018-03-01T22:20:03.918Z,1003.95
2018-03-01T22:29:59.171Z,1002.90
2018-03-01T22:39:51.786Z,1002.90
2018-03-01T22:49:46.315Z,1002.90
2018-03-01T22:59:42.277Z,1002.90
2018-03-01T23:09:40.752Z,1002.90
2018-03-01T23:19:37.384Z,1002.90
2018-03-01T23:29:33.547Z,1002.90
2018-03-01T23:39:31.388Z,1002.90
2018-03-01T23:49:29.822Z,1002.90
2018-03-01T23:59:28.724Z,1001.86
